createdAt,value
2023-01-26T00:01:59.205Z,76.30
2023-01-26T00:07:00.746Z,76.21
2023-01-26T00:12:02.218Z,76.34
2023-01-26T00:17:03.704Z,76.32
2023-01-26T00:22:05.184Z,76.07
2023-01-26T00:27:06.670Z,75.89
2023-01-26T00:32:08.156Z,75.82
2023-01-26T00:37:09.650Z,75.79
2023-01-26T00:42:14.092Z,75.93
2023-01-26T00:47:15.605Z,76.14
2023-01-26T00:52:17.068Z,76.22
2023-01-26T00:57:18.639Z,76.22
2023-01-26T01:02:20.688Z,76.09
2023-01-26T01:07:22.220Z,75.80
2023-01-26T01:12:23.817Z,75.86
2023-01-26T01:17:25.653Z,76.10
2023-01-26T01:22:27.131Z,76.39
2023-01-26T01:27:28.720Z,76.43
2023-01-26T01:32:30.234Z,76.92
2023-01-26T01:37:33.492Z,77.04
2023-01-26T01:42:34.970Z,77.00
2023-01-26T01:47:36.511Z,76.64
2023-01-26T01:52:38.022Z,76.29
2023-01-26T01:57:55.845Z,76.35
2023-01-26T02:03:21.131Z,76.75
2023-01-26T02:08:27.807Z,76.93
2023-01-26T02:13:31.702Z,76.93
2023-01-26T02:18:33.448Z,77.10
2023-01-26T02:23:41.333Z,76.83
2023-01-26T02:28:44.679Z,76.98
2023-01-26T02:33:46.264Z,77.04
2023-01-26T02:39:29.570Z,77.31
2023-01-26T02:44:32.374Z,76.94
2023-01-26T02:49:50.756Z,77.00
2023-01-26T02:55:12.162Z,77.34
2023-01-26T03:00:18.775Z,77.17
2023-01-26T03:05:20.635Z,77.56
2023-01-26T03:10:24.305Z,77.54
2023-01-26T03:15:43.388Z,77.48
2023-01-26T03:21:03.675Z,77.19
2023-01-26T03:26:23.700Z,77.44
2023-01-26T03:31:25.284Z,77.46
2023-01-26T03:36:26.797Z,77.39
2023-01-26T03:41:47.125Z,77.69
2023-01-26T03:47:07.092Z,77.62
2023-01-26T03:52:27.145Z,78.00
2023-01-26T03:57:29.563Z,77.72
2023-01-26T04:02:49.484Z,77.79
2023-01-26T04:08:09.465Z,77.65
2023-01-26T04:13:29.462Z,77.42
2023-01-26T04:18:49.904Z,77.77
2023-01-26T04:23:58.066Z,77.77
2023-01-26T04:28:59.712Z,77.99
2023-01-26T04:34:03.189Z,77.70
2023-01-26T04:39:04.987Z,77.48
2023-01-26T04:44:06.496Z,77.68
2023-01-26T04:49:08.920Z,77.88
2023-01-26T04:54:10.453Z,77.43
2023-01-26T04:59:12.362Z,77.99
2023-01-26T05:04:14.282Z,77.85
2023-01-26T05:09:15.772Z,77.48
2023-01-26T05:14:17.304Z,77.62
2023-01-26T05:19:18.820Z,77.59
2023-01-26T05:24:20.328Z,77.84
2023-01-26T05:29:23.421Z,78.12
2023-01-26T05:34:24.875Z,78.05
2023-01-26T05:39:26.345Z,78.14
2023-01-26T05:44:29.415Z,77.93
2023-01-26T05:49:31.507Z,77.72
2023-01-26T05:54:33.011Z,77.53
2023-01-26T05:59:37.110Z,77.45
2023-01-26T06:04:38.762Z,77.34
2023-01-26T06:09:41.092Z,77.66
2023-01-26T06:14:42.819Z,77.43
2023-01-26T06:19:44.620Z,76.68
2023-01-26T06:24:50.114Z,76.61
2023-01-26T06:29:51.640Z,76.45
2023-01-26T06:34:56.144Z,76.31
2023-01-26T06:39:57.523Z,76.48
2023-01-26T06:44:59.072Z,76.55
2023-01-26T06:50:03.564Z,75.91
2023-01-26T06:55:05.161Z,75.46
2023-01-26T07:00:07.716Z,75.34
2023-01-26T07:05:11.114Z,75.45
2023-01-26T07:10:13.679Z,75.66
2023-01-26T07:15:15.467Z,75.45
2023-01-26T07:20:17.011Z,76.06
2023-01-26T07:25:19.348Z,75.41
2023-01-26T07:30:23.105Z,75.21
2023-01-26T07:35:24.650Z,75.12
2023-01-26T07:40:26.166Z,75.14
2023-01-26T07:45:28.280Z,75.52
2023-01-26T07:50:30.272Z,74.83
2023-01-26T07:55:31.764Z,74.76
2023-01-26T08:00:33.228Z,74.26
2023-01-26T08:05:37.129Z,74.46
2023-01-26T08:10:38.962Z,74.53
2023-01-26T08:15:40.433Z,74.88
2023-01-26T08:20:42.535Z,74.66
2023-01-26T08:25:44.684Z,74.12
2023-01-26T08:30:46.207Z,73.60
2023-01-26T08:35:47.713Z,73.69
2023-01-26T08:40:52.199Z,73.50
2023-01-26T08:45:56.261Z,73.41
2023-01-26T08:51:02.459Z,73.34
2023-01-26T08:56:06.217Z,73.27
2023-01-26T09:01:11.754Z,72.93
2023-01-26T09:06:17.359Z,72.51
2023-01-26T09:11:18.824Z,72.18
2023-01-26T09:16:20.772Z,72.75
2023-01-26T09:21:25.150Z,72.32
2023-01-26T09:26:26.687Z,72.32
2023-01-26T09:31:28.339Z,71.32
2023-01-26T09:36:29.995Z,71.35
2023-01-26T09:41:57.097Z,70.95
2023-01-26T09:47:21.716Z,71.15
2023-01-26T09:52:39.442Z,71.37
2023-01-26T09:58:13.306Z,71.02
2023-01-26T10:03:43.094Z,71.35
2023-01-26T10:08:45.288Z,71.13
2023-01-26T10:13:57.091Z,70.97
2023-01-26T10:19:12.800Z,70.45
2023-01-26T10:24:20.786Z,70.44
2023-01-26T10:29:23.011Z,70.32
2023-01-26T10:34:27.723Z,69.80
2023-01-26T10:39:29.278Z,70.28
2023-01-26T10:44:38.599Z,69.42
2023-01-26T10:49:40.272Z,69.55
2023-01-26T10:54:44.012Z,68.70
2023-01-26T10:59:53.613Z,68.62
2023-01-26T11:05:07.080Z,68.77
2023-01-26T11:10:28.204Z,68.26
2023-01-26T11:15:36.653Z,68.69
2023-01-26T11:20:51.934Z,68.85
2023-01-26T11:26:15.342Z,69.28
2023-01-26T11:31:40.090Z,67.84
2023-01-26T11:37:16.361Z,68.10
2023-01-26T11:42:36.134Z,68.21
2023-01-26T11:48:08.235Z,68.21
2023-01-26T11:53:24.074Z,68.25
2023-01-26T11:58:41.131Z,67.86
2023-01-26T12:03:49.479Z,68.55
2023-01-26T12:09:00.396Z,68.46
2023-01-26T12:14:23.178Z,68.03
2023-01-26T12:19:33.831Z,68.08
2023-01-26T12:25:08.182Z,67.68
2023-01-26T12:30:19.935Z,67.88
2023-01-26T12:35:46.728Z,68.49
2023-01-26T12:41:14.231Z,67.75
2023-01-26T12:46:17.892Z,67.44
2023-01-26T12:51:29.820Z,67.52
2023-01-26T12:56:45.551Z,67.41
2023-01-26T13:01:47.668Z,67.73
2023-01-26T13:07:33.567Z,67.87
2023-01-26T13:12:46.903Z,68.70
2023-01-26T13:17:51.498Z,68.50
2023-01-26T13:22:54.710Z,67.53
2023-01-26T13:27:59.049Z,67.33
2023-01-26T13:33:20.679Z,67.53
2023-01-26T13:38:39.250Z,67.32
2023-01-26T13:43:46.382Z,67.99
2023-01-26T13:48:55.387Z,68.15
2023-01-26T13:54:01.694Z,68.25
2023-01-26T13:59:09.234Z,67.91
2023-01-26T14:04:21.410Z,68.53
2023-01-26T14:09:26.503Z,68.78
2023-01-26T14:14:31.635Z,68.68
2023-01-26T14:19:40.207Z,68.93
2023-01-26T14:24:43.350Z,69.38
2023-01-26T14:29:44.908Z,68.47
2023-01-26T14:34:55.009Z,68.74
2023-01-26T14:40:23.600Z,69.05
2023-01-26T14:45:31.327Z,69.30
2023-01-26T14:50:33.892Z,69.59
2023-01-26T14:55:36.469Z,69.60
2023-01-26T15:06:20.364Z,69.68
2023-01-26T15:11:58.329Z,69.86
2023-01-26T15:17:00.163Z,69.90
2023-01-26T15:22:01.738Z,69.84
2023-01-26T15:27:07.491Z,69.69
2023-01-26T15:32:28.488Z,69.97
2023-01-26T15:37:32.712Z,70.19
2023-01-26T15:42:34.414Z,69.81
2023-01-26T15:47:35.894Z,69.13
2023-01-26T15:52:37.431Z,69.38
2023-01-26T15:57:38.942Z,69.40
2023-01-26T16:02:40.494Z,69.13
2023-01-26T16:07:42.089Z,69.34
2023-01-26T16:12:44.711Z,69.22
2023-01-26T16:17:46.228Z,69.23
2023-01-26T16:22:47.741Z,69.20
2023-01-26T16:27:49.662Z,69.38
2023-01-26T16:32:51.989Z,69.59
2023-01-26T16:37:54.422Z,69.74
2023-01-26T16:42:56.131Z,69.70
2023-01-26T16:47:58.285Z,69.96
2023-01-26T16:53:07.811Z,70.01
2023-01-26T16:58:09.458Z,70.13
2023-01-26T17:03:13.907Z,70.67
2023-01-26T17:08:15.275Z,70.57
2023-01-26T17:13:17.892Z,69.77
2023-01-26T17:18:19.867Z,69.70
2023-01-26T17:23:21.490Z,69.72
2023-01-26T17:28:23.063Z,69.39
2023-01-26T17:33:24.613Z,69.27
2023-01-26T17:38:26.129Z,69.41
2023-01-26T17:43:28.735Z,69.19
2023-01-26T17:48:33.717Z,69.45
2023-01-26T17:53:44.931Z,69.68
2023-01-26T17:58:55.320Z,69.88
2023-01-26T18:03:57.361Z,69.92
2023-01-26T18:08:58.899Z,70.04
2023-01-26T18:14:00.497Z,70.39
2023-01-26T18:19:04.344Z,70.71
2023-01-26T18:24:06.799Z,70.69
2023-01-26T18:29:09.532Z,70.63
2023-01-26T18:34:11.589Z,70.55
2023-01-26T18:39:14.725Z,71.05
2023-01-26T18:44:18.182Z,70.66
2023-01-26T18:49:19.773Z,70.05
2023-01-26T18:54:21.293Z,69.55
2023-01-26T18:59:22.884Z,69.34
2023-01-26T19:04:24.367Z,69.60
2023-01-26T19:09:30.707Z,69.76
2023-01-26T19:14:32.771Z,69.74
2023-01-26T19:19:34.583Z,69.69
2023-01-26T19:24:36.063Z,69.56
2023-01-26T19:29:37.649Z,69.87
2023-01-26T19:34:39.135Z,69.76
2023-01-26T19:39:40.733Z,70.04
2023-01-26T19:44:42.739Z,69.93
2023-01-26T19:49:44.208Z,70.04
2023-01-26T19:54:45.703Z,69.85
2023-01-26T19:59:47.710Z,70.15
2023-01-26T20:04:49.213Z,70.42
2023-01-26T20:09:51.048Z,70.40
2023-01-26T20:14:53.581Z,70.71
2023-01-26T20:19:56.071Z,70.84
2023-01-26T20:24:57.565Z,71.02
2023-01-26T20:29:59.522Z,70.62
2023-01-26T20:35:02.326Z,70.22
2023-01-26T20:40:05.831Z,69.94
2023-01-26T20:45:08.718Z,69.82
2023-01-26T20:50:12.830Z,70.07
2023-01-26T20:55:14.702Z,70.03
2023-01-26T21:00:17.044Z,70.14
2023-01-26T21:05:19.634Z,70.39
2023-01-26T21:10:21.271Z,70.61
2023-01-26T21:15:22.971Z,70.77
2023-01-26T21:20:24.918Z,70.97
2023-01-26T21:25:26.916Z,71.71
2023-01-26T21:30:28.470Z,71.35
2023-01-26T21:35:30.163Z,71.46
2023-01-26T21:40:31.680Z,71.68
2023-01-26T21:45:52.835Z,71.84
2023-01-26T21:51:17.645Z,71.33
2023-01-26T21:56:19.142Z,70.90
2023-01-26T22:01:21.681Z,71.07
2023-01-26T22:06:23.667Z,71.36
2023-01-26T22:11:26.166Z,71.65
2023-01-26T22:16:28.200Z,71.50
2023-01-26T22:21:29.795Z,71.55
2023-01-26T22:26:31.467Z,72.20
2023-01-26T22:31:33.903Z,71.71
2023-01-26T22:36:35.484Z,71.64
2023-01-26T22:41:37.790Z,72.02
2023-01-26T22:46:39.703Z,72.32
2023-01-26T22:51:41.304Z,72.41
2023-01-26T22:56:42.804Z,72.34
2023-01-26T23:01:44.423Z,72.12
2023-01-26T23:06:45.952Z,71.98
2023-01-26T23:11:47.416Z,71.75
2023-01-26T23:16:48.973Z,71.80
2023-01-26T23:21:50.535Z,71.85
2023-01-26T23:26:52.146Z,72.04
2023-01-26T23:31:53.691Z,71.97
2023-01-26T23:36:55.284Z,72.33
2023-01-26T23:41:57.446Z,72.59
2023-01-26T23:46:58.977Z,72.68
2023-01-26T23:52:00.548Z,72.75
2023-01-26T23:57:02.019Z,72.86
